WXForecasting.com
Harvey, MI - Weather Station Data
 
Daily Summary for July 05, 2015 Units:  English    Metric   Both
« Previous Day
Next Day »
Daily Weekly Monthly Yearly Custom
  Current: High: Low: Average:
Temperature: 82.8 °F 85.3 °F 55.4 °F 70.9 °F
Dew Point: 64.0 °F 69.0 °F 53.0 °F 61.5 °F
Humidity: 54% 92% 51% 74%
Wind Speed: 4.0mph 9.0mph 0.0mph 2mph
Wind Gust: 12.0mph 15.0mph - -
WindSouth - - South
Pressure: 29.80 in 29.94 in 29.80 in -
Precipitation: 0.00 in      
Historical Graphs
 
 
Tabular Data for July 05, 2015
Time Temp Dew Point Pressure Wind Wind Speed Wind Gust RH Rain Rate/Hour
00:00 55.4 °F 53.0 °F 29.93 in Calm     90% 0.00 in
00:15 55.4 °F 53.0 °F 29.93 in Calm     91% 0.00 in
00:30 55.8 °F 53.0 °F 29.94 in Calm     91% 0.00 in
00:45 56.1 °F 54.0 °F 29.94 in Calm     91% 0.00 in
01:00 56.2 °F 54.0 °F 29.94 in Calm     91% 0.00 in
01:15 56.0 °F 54.0 °F 29.94 in Calm     91% 0.00 in
01:45 56.4 °F 54.0 °F 29.94 in Calm     91% 0.00 in
02:00 56.7 °F 54.0 °F 29.94 in Calm     91% 0.00 in
02:15 56.9 °F 54.0 °F 29.94 in Calm   1.0 mph 91% 0.00 in
02:30 58.1 °F 56.0 °F 29.93 in Calm   3.0 mph 92% 0.00 in
02:45 59.9 °F 57.0 °F 29.93 in SSW 3.0 mph 10.0 mph 91% 0.00 in
03:00 61.8 °F 57.0 °F 29.93 in Calm   6.0 mph 85% 0.00 in
03:15 62.5 °F 57.0 °F 29.93 in South 1.0 mph 9.0 mph 83% 0.00 in
03:30 62.9 °F 57.0 °F 29.92 in Calm   8.0 mph 82% 0.00 in
03:45 62.9 °F 57.0 °F 29.92 in SSW 1.0 mph 6.0 mph 82% 0.00 in
04:00 62.9 °F 58.0 °F 29.92 in SSW 2.0 mph 9.0 mph 83% 0.00 in
04:15 62.6 °F 57.0 °F 29.91 in SE 2.0 mph 5.0 mph 83% 0.00 in
04:30 62.4 °F 57.0 °F 29.90 in Calm   6.0 mph 83% 0.00 in
04:45 62.3 °F 57.0 °F 29.90 in WSW 1.0 mph 6.0 mph 84% 0.00 in
05:00 62.4 °F 58.0 °F 29.91 in Calm   6.0 mph 84% 0.00 in
05:15 62.3 °F 57.0 °F 29.91 in Calm   4.0 mph 84% 0.00 in
05:30 62.0 °F 58.0 °F 29.91 in South 2.0 mph 6.0 mph 85% 0.00 in
05:46 61.9 °F 57.0 °F 29.92 in SSE 2.0 mph 11.0 mph 85% 0.00 in
06:00 61.7 °F 57.0 °F 29.92 in SSW 1.0 mph 10.0 mph 85% 0.00 in
06:15 61.5 °F 57.0 °F 29.92 in Calm   7.0 mph 86% 0.00 in
06:30 61.5 °F 58.0 °F 29.93 in SSE 2.0 mph 6.0 mph 87% 0.00 in
06:45 61.6 °F 58.0 °F 29.93 in Calm   4.0 mph 87% 0.00 in
07:00 61.6 °F 58.0 °F 29.94 in South 2.0 mph 7.0 mph 87% 0.00 in
07:15 61.8 °F 58.0 °F 29.94 in SSE 2.0 mph 8.0 mph 87% 0.00 in
07:30 62.1 °F 58.0 °F 29.94 in South 2.0 mph 8.0 mph 87% 0.00 in
07:45 62.6 °F 59.0 °F 29.94 in Calm   8.0 mph 87% 0.00 in
08:00 63.3 °F 59.0 °F 29.93 in South 1.0 mph 9.0 mph 86% 0.00 in
08:16 64.0 °F 60.0 °F 29.93 in South 2.0 mph 4.0 mph 86% 0.00 in
08:31 64.8 °F 61.0 °F 29.93 in South 1.0 mph 9.0 mph 86% 0.00 in
08:46 65.7 °F 61.0 °F 29.93 in Calm   7.0 mph 84% 0.00 in
09:01 66.7 °F 61.0 °F 29.93 in SSE 3.0 mph 6.0 mph 83% 0.00 in
09:16 67.9 °F 62.0 °F 29.92 in Calm   6.0 mph 82% 0.00 in
09:31 69.3 °F 63.0 °F 29.92 in SW 7.0 mph 7.0 mph 81% 0.00 in
09:46 70.3 °F 64.0 °F 29.91 in SSE 2.0 mph 8.0 mph 80% 0.00 in
10:01 71.6 °F 65.0 °F 29.90 in South 4.0 mph 5.0 mph 80% 0.00 in
10:16 73.1 °F 66.0 °F 29.90 in SSE 2.0 mph 8.0 mph 78% 0.00 in
10:31 74.3 °F 67.0 °F 29.89 in Calm   10.0 mph 77% 0.00 in
10:46 75.5 °F 67.0 °F 29.91 in SSE 2.0 mph 5.0 mph 76% 0.00 in
11:16 77.4 °F 68.0 °F 29.90 in Calm   8.0 mph 72% 0.00 in
11:31 78.7 °F 68.0 °F 29.90 in South 2.0 mph 6.0 mph 70% 0.00 in
11:46 79.6 °F 68.0 °F 29.90 in South 2.0 mph 9.0 mph 68% 0.00 in
12:01 80.6 °F 67.0 °F 29.90 in SSE 4.0 mph 10.0 mph 64% 0.00 in
12:17 81.4 °F 68.0 °F 29.89 in South 1.0 mph 10.0 mph 64% 0.00 in
12:32 82.0 °F 69.0 °F 29.89 in SSE 1.0 mph 7.0 mph 65% 0.00 in
12:47 82.6 °F 67.0 °F 29.89 in South 9.0 mph 12.0 mph 59% 0.00 in
13:02 83.1 °F 67.0 °F 29.89 in SSW 4.0 mph 11.0 mph 58% 0.00 in
13:17 82.8 °F 66.0 °F 29.89 in South 3.0 mph 9.0 mph 57% 0.00 in
13:47 83.6 °F 66.0 °F 29.89 in SSE 2.0 mph 10.0 mph 55% 0.00 in
14:02 84.3 °F 67.0 °F 29.88 in SSW 3.0 mph 9.0 mph 56% 0.00 in
14:17 84.8 °F 68.0 °F 29.88 in SSE 4.0 mph 8.0 mph 57% 0.00 in
14:32 84.3 °F 66.0 °F 29.87 in South 6.0 mph 10.0 mph 55% 0.00 in
15:02 84.7 °F 66.0 °F 29.86 in South 2.0 mph 10.0 mph 54% 0.00 in
15:17 85.0 °F 66.0 °F 29.86 in South 2.0 mph 13.0 mph 54% 0.00 in
15:32 84.8 °F 66.0 °F 29.86 in SSW 5.0 mph 9.0 mph 54% 0.00 in
15:47 85.3 °F 66.0 °F 29.86 in Calm   12.0 mph 52% 0.00 in
16:02 85.0 °F 65.0 °F 29.85 in South 7.0 mph 15.0 mph 51% 0.00 in
16:17 85.0 °F 66.0 °F 29.85 in South 3.0 mph 11.0 mph 53% 0.00 in
16:32 84.7 °F 67.0 °F 29.85 in South 2.0 mph 10.0 mph 55% 0.00 in
16:47 84.7 °F 66.0 °F 29.85 in SW 8.0 mph 14.0 mph 53% 0.00 in
17:02 84.1 °F 67.0 °F 29.84 in SSE 1.0 mph 7.0 mph 56% 0.00 in
17:17 84.3 °F 66.0 °F 29.84 in SSE 6.0 mph 11.0 mph 54% 0.00 in
17:32 84.0 °F 67.0 °F 29.83 in Calm   8.0 mph 56% 0.00 in
18:02 83.5 °F 65.0 °F 29.82 in SE 3.0 mph 12.0 mph 54% 0.00 in
18:17 83.4 °F 66.0 °F 29.82 in South 4.0 mph 8.0 mph 55% 0.00 in
18:32 83.4 °F 65.0 °F 29.82 in South 6.0 mph 9.0 mph 54% 0.00 in
18:47 83.0 °F 65.0 °F 29.80 in SSW 6.0 mph 14.0 mph 55% 0.00 in
19:02 82.8 °F 64.0 °F 29.80 in South 4.0 mph 12.0 mph 54% 0.00 in
Compliments of Weather Underground

13 Visitors online right now
Max visitors today: 23 at 07:20 am EDT
This month: 23 at 07-05-2015 07:20 am EDT
This year: 103 at 06-10-2015 03:56 pm EDT
All time: 104 at 01-04-2012 03:34 am EST
See Who is Online